sensor_id;sensor_type;location;lat;lon;timestamp;P1;durP1;ratioP1;P2;durP2;ratioP2
20114;SDS011;10218;42.874;25.320;2023-05-10T00:00:46;28.10;;;18.13;;
20114;SDS011;10218;42.874;25.320;2023-05-10T00:03:13;27.60;;;17.17;;
20114;SDS011;10218;42.874;25.320;2023-05-10T00:05:40;23.43;;;15.57;;
20114;SDS011;10218;42.874;25.320;2023-05-10T00:08:07;28.97;;;16.20;;
20114;SDS011;10218;42.874;25.320;2023-05-10T00:10:35;22.33;;;14.77;;
20114;SDS011;10218;42.874;25.320;2023-05-10T00:13:03;19.23;;;13.47;;
20114;SDS011;10218;42.874;25.320;2023-05-10T00:15:30;16.47;;;12.33;;
20114;SDS011;10218;42.874;25.320;2023-05-10T00:17:58;19.03;;;12.50;;
20114;SDS011;10218;42.874;25.320;2023-05-10T00:20:25;13.30;;;9.87;;
20114;SDS011;10218;42.874;25.320;2023-05-10T00:22:52;12.73;;;10.30;;
20114;SDS011;10218;42.874;25.320;2023-05-10T00:25:19;15.23;;;9.30;;
20114;SDS011;10218;42.874;25.320;2023-05-10T00:27:48;13.43;;;9.40;;
20114;SDS011;10218;42.874;25.320;2023-05-10T00:30:16;14.67;;;9.23;;
20114;SDS011;10218;42.874;25.320;2023-05-10T00:32:43;11.57;;;9.30;;
20114;SDS011;10218;42.874;25.320;2023-05-10T00:35:10;14.30;;;9.23;;
20114;SDS011;10218;42.874;25.320;2023-05-10T00:37:37;12.40;;;8.50;;
20114;SDS011;10218;42.874;25.320;2023-05-10T00:40:05;11.03;;;8.83;;
20114;SDS011;10218;42.874;25.320;2023-05-10T00:42:33;17.47;;;9.90;;
20114;SDS011;10218;42.874;25.320;2023-05-10T00:45:00;14.60;;;10.13;;
20114;SDS011;10218;42.874;25.320;2023-05-10T00:47:28;12.70;;;9.73;;
20114;SDS011;10218;42.874;25.320;2023-05-10T00:49:56;13.77;;;10.17;;
20114;SDS011;10218;42.874;25.320;2023-05-10T00:52:24;16.73;;;10.57;;
20114;SDS011;10218;42.874;25.320;2023-05-10T00:54:52;13.63;;;9.37;;
20114;SDS011;10218;42.874;25.320;2023-05-10T00:57:21;10.83;;;8.80;;
20114;SDS011;10218;42.874;25.320;2023-05-10T00:59:48;11.13;;;8.13;;
20114;SDS011;10218;42.874;25.320;2023-05-10T01:02:16;13.00;;;8.70;;
20114;SDS011;10218;42.874;25.320;2023-05-10T01:04:43;13.50;;;8.83;;
20114;SDS011;10218;42.874;25.320;2023-05-10T01:07:10;17.13;;;9.30;;
20114;SDS011;10218;42.874;25.320;2023-05-10T01:09:37;17.97;;;10.27;;
20114;SDS011;10218;42.874;25.320;2023-05-10T01:12:05;15.90;;;10.20;;
20114;SDS011;10218;42.874;25.320;2023-05-10T01:14:33;16.30;;;10.73;;
20114;SDS011;10218;42.874;25.320;2023-05-10T01:17:03;17.27;;;11.20;;
20114;SDS011;10218;42.874;25.320;2023-05-10T01:19:33;18.17;;;12.50;;
20114;SDS011;10218;42.874;25.320;2023-05-10T01:27:34;12.67;;;9.27;;
20114;SDS011;10218;42.874;25.320;2023-05-10T01:33:01;11.53;;;8.73;;
20114;SDS011;10218;42.874;25.320;2023-05-10T01:35:43;11.17;;;8.80;;
20114;SDS011;10218;42.874;25.320;2023-05-10T01:38:17;18.33;;;9.80;;
20114;SDS011;10218;42.874;25.320;2023-05-10T01:40:57;18.73;;;9.80;;
20114;SDS011;10218;42.874;25.320;2023-05-10T01:43:28;15.70;;;9.40;;
20114;SDS011;10218;42.874;25.320;2023-05-10T01:46:07;13.23;;;9.30;;
20114;SDS011;10218;42.874;25.320;2023-05-10T01:48:41;14.43;;;9.50;;
20114;SDS011;10218;42.874;25.320;2023-05-10T01:51:22;11.63;;;8.63;;
20114;SDS011;10218;42.874;25.320;2023-05-10T01:53:53;16.50;;;8.80;;
20114;SDS011;10218;42.874;25.320;2023-05-10T01:56:29;15.47;;;8.90;;
20114;SDS011;10218;42.874;25.320;2023-05-10T01:58:58;15.17;;;7.33;;
20114;SDS011;10218;42.874;25.320;2023-05-10T02:01:28;9.20;;;7.80;;
20114;SDS011;10218;42.874;25.320;2023-05-10T02:03:56;9.80;;;7.00;;
20114;SDS011;10218;42.874;25.320;2023-05-10T02:06:25;7.80;;;6.80;;
20114;SDS011;10218;42.874;25.320;2023-05-10T02:08:53;8.57;;;6.67;;
20114;SDS011;10218;42.874;25.320;2023-05-10T02:11:22;8.27;;;6.73;;
20114;SDS011;10218;42.874;25.320;2023-05-10T02:13:51;11.50;;;6.40;;
20114;SDS011;10218;42.874;25.320;2023-05-10T02:16:24;9.40;;;6.50;;
20114;SDS011;10218;42.874;25.320;2023-05-10T02:18:53;8.77;;;6.47;;
20114;SDS011;10218;42.874;25.320;2023-05-10T02:21:21;13.20;;;6.73;;
20114;SDS011;10218;42.874;25.320;2023-05-10T02:23:50;10.97;;;7.03;;
20114;SDS011;10218;42.874;25.320;2023-05-10T02:26:18;9.20;;;6.27;;
20114;SDS011;10218;42.874;25.320;2023-05-10T02:28:50;9.03;;;6.17;;
20114;SDS011;10218;42.874;25.320;2023-05-10T02:31:20;8.43;;;5.87;;
20114;SDS011;10218;42.874;25.320;2023-05-10T02:33:48;8.27;;;5.90;;
20114;SDS011;10218;42.874;25.320;2023-05-10T02:36:17;10.07;;;6.40;;
20114;SDS011;10218;42.874;25.320;2023-05-10T02:38:45;12.77;;;6.60;;
20114;SDS011;10218;42.874;25.320;2023-05-10T02:41:13;9.97;;;6.73;;
20114;SDS011;10218;42.874;25.320;2023-05-10T02:43:41;12.30;;;6.43;;
20114;SDS011;10218;42.874;25.320;2023-05-10T02:46:09;16.67;;;7.60;;
20114;SDS011;10218;42.874;25.320;2023-05-10T02:48:36;12.63;;;7.43;;
20114;SDS011;10218;42.874;25.320;2023-05-10T02:51:05;10.77;;;7.17;;
20114;SDS011;10218;42.874;25.320;2023-05-10T02:53:35;10.00;;;6.83;;
20114;SDS011;10218;42.874;25.320;2023-05-10T02:56:07;10.30;;;6.43;;
20114;SDS011;10218;42.874;25.320;2023-05-10T02:58:50;10.17;;;6.70;;
20114;SDS011;10218;42.874;25.320;2023-05-10T03:01:17;9.13;;;6.43;;
20114;SDS011;10218;42.874;25.320;2023-05-10T03:03:44;9.20;;;6.53;;
20114;SDS011;10218;42.874;25.320;2023-05-10T03:06:11;8.70;;;6.70;;
20114;SDS011;10218;42.874;25.320;2023-05-10T03:08:38;15.07;;;6.57;;
20114;SDS011;10218;42.874;25.320;2023-05-10T03:16:56;9.03;;;6.57;;
20114;SDS011;10218;42.874;25.320;2023-05-10T03:19:30;13.40;;;7.10;;
20114;SDS011;10218;42.874;25.320;2023-05-10T03:22:06;9.63;;;7.27;;
20114;SDS011;10218;42.874;25.320;2023-05-10T03:24:37;15.80;;;7.50;;
20114;SDS011;10218;42.874;25.320;2023-05-10T03:27:07;16.57;;;7.60;;
20114;SDS011;10218;42.874;25.320;2023-05-10T03:29:35;10.33;;;7.10;;
20114;SDS011;10218;42.874;25.320;2023-05-10T03:32:04;11.00;;;7.23;;
20114;SDS011;10218;42.874;25.320;2023-05-10T03:34:32;15.17;;;8.10;;
20114;SDS011;10218;42.874;25.320;2023-05-10T03:36:59;13.73;;;7.27;;
20114;SDS011;10218;42.874;25.320;2023-05-10T03:39:27;14.30;;;7.77;;
20114;SDS011;10218;42.874;25.320;2023-05-10T03:41:54;14.03;;;7.97;;
20114;SDS011;10218;42.874;25.320;2023-05-10T03:44:21;11.97;;;7.53;;
20114;SDS011;10218;42.874;25.320;2023-05-10T03:46:49;10.53;;;7.00;;
20114;SDS011;10218;42.874;25.320;2023-05-10T03:49:16;15.10;;;8.43;;
20114;SDS011;10218;42.874;25.320;2023-05-10T03:51:43;8.53;;;6.53;;
20114;SDS011;10218;42.874;25.320;2023-05-10T03:54:10;10.90;;;6.63;;
20114;SDS011;10218;42.874;25.320;2023-05-10T03:56:37;12.23;;;7.10;;
20114;SDS011;10218;42.874;25.320;2023-05-10T03:59:05;11.20;;;7.37;;
20114;SDS011;10218;42.874;25.320;2023-05-10T04:01:35;10.63;;;6.97;;
20114;SDS011;10218;42.874;25.320;2023-05-10T04:04:02;11.60;;;7.13;;
20114;SDS011;10218;42.874;25.320;2023-05-10T04:06:30;9.17;;;7.27;;
20114;SDS011;10218;42.874;25.320;2023-05-10T04:08:57;32.17;;;16.90;;
20114;SDS011;10218;42.874;25.320;2023-05-10T04:11:26;9.90;;;7.30;;
20114;SDS011;10218;42.874;25.320;2023-05-10T04:13:54;11.63;;;6.63;;
20114;SDS011;10218;42.874;25.320;2023-05-10T04:16:21;12.63;;;7.10;;
20114;SDS011;10218;42.874;25.320;2023-05-10T04:18:48;11.07;;;8.53;;
20114;SDS011;10218;42.874;25.320;2023-05-10T04:21:15;14.60;;;8.27;;
20114;SDS011;10218;42.874;25.320;2023-05-10T04:23:42;12.37;;;7.47;;
20114;SDS011;10218;42.874;25.320;2023-05-10T04:26:09;13.37;;;7.80;;
20114;SDS011;10218;42.874;25.320;2023-05-10T04:28:36;11.37;;;6.73;;
20114;SDS011;10218;42.874;25.320;2023-05-10T04:31:05;13.23;;;6.50;;
20114;SDS011;10218;42.874;25.320;2023-05-10T04:33:34;13.33;;;7.10;;
20114;SDS011;10218;42.874;25.320;2023-05-10T04:36:02;13.47;;;7.77;;
20114;SDS011;10218;42.874;25.320;2023-05-10T04:38:30;10.43;;;8.10;;
20114;SDS011;10218;42.874;25.320;2023-05-10T04:41:07;11.63;;;8.07;;
20114;SDS011;10218;42.874;25.320;2023-05-10T04:43:34;11.70;;;7.13;;
20114;SDS011;10218;42.874;25.320;2023-05-10T04:46:03;12.93;;;7.83;;
20114;SDS011;10218;42.874;25.320;2023-05-10T04:48:31;14.40;;;7.17;;
20114;SDS011;10218;42.874;25.320;2023-05-10T04:50:58;14.07;;;8.23;;
20114;SDS011;10218;42.874;25.320;2023-05-10T04:53:25;16.30;;;8.10;;
20114;SDS011;10218;42.874;25.320;2023-05-10T04:55:52;12.93;;;7.60;;
20114;SDS011;10218;42.874;25.320;2023-05-10T04:58:19;11.70;;;8.37;;
20114;SDS011;10218;42.874;25.320;2023-05-10T05:00:46;11.90;;;7.93;;
20114;SDS011;10218;42.874;25.320;2023-05-10T05:03:13;18.17;;;8.50;;
20114;SDS011;10218;42.874;25.320;2023-05-10T05:05:41;11.20;;;8.07;;
20114;SDS011;10218;42.874;25.320;2023-05-10T05:08:08;14.63;;;7.67;;
20114;SDS011;10218;42.874;25.320;2023-05-10T05:10:35;11.43;;;7.20;;
20114;SDS011;10218;42.874;25.320;2023-05-10T05:13:02;12.80;;;8.77;;
20114;SDS011;10218;42.874;25.320;2023-05-10T05:15:29;14.20;;;8.53;;
20114;SDS011;10218;42.874;25.320;2023-05-10T05:17:57;12.60;;;8.10;;
20114;SDS011;10218;42.874;25.320;2023-05-10T05:20:24;15.27;;;8.67;;
20114;SDS011;10218;42.874;25.320;2023-05-10T05:22:51;13.50;;;8.10;;
20114;SDS011;10218;42.874;25.320;2023-05-10T05:25:18;12.63;;;8.20;;
20114;SDS011;10218;42.874;25.320;2023-05-10T05:27:45;15.80;;;8.57;;
20114;SDS011;10218;42.874;25.320;2023-05-10T05:30:12;17.37;;;9.00;;
20114;SDS011;10218;42.874;25.320;2023-05-10T05:32:39;12.87;;;7.93;;
20114;SDS011;10218;42.874;25.320;2023-05-10T05:35:06;16.40;;;7.20;;
20114;SDS011;10218;42.874;25.320;2023-05-10T05:37:34;10.40;;;5.63;;
20114;SDS011;10218;42.874;25.320;2023-05-10T05:40:01;11.17;;;5.63;;
20114;SDS011;10218;42.874;25.320;2023-05-10T05:42:29;12.13;;;5.80;;
20114;SDS011;10218;42.874;25.320;2023-05-10T05:44:58;9.60;;;5.60;;
20114;SDS011;10218;42.874;25.320;2023-05-10T05:47:25;9.47;;;6.37;;
20114;SDS011;10218;42.874;25.320;2023-05-10T05:49:52;9.90;;;6.50;;
20114;SDS011;10218;42.874;25.320;2023-05-10T05:52:19;8.97;;;5.50;;
20114;SDS011;10218;42.874;25.320;2023-05-10T05:54:47;12.23;;;5.90;;
20114;SDS011;10218;42.874;25.320;2023-05-10T05:57:14;12.27;;;6.43;;
20114;SDS011;10218;42.874;25.320;2023-05-10T05:59:41;9.03;;;5.90;;
20114;SDS011;10218;42.874;25.320;2023-05-10T06:02:10;8.30;;;6.37;;
20114;SDS011;10218;42.874;25.320;2023-05-10T06:04:38;11.10;;;6.90;;
20114;SDS011;10218;42.874;25.320;2023-05-10T06:07:06;9.43;;;6.43;;
20114;SDS011;10218;42.874;25.320;2023-05-10T06:09:33;8.47;;;6.40;;
20114;SDS011;10218;42.874;25.320;2023-05-10T06:12:00;9.00;;;7.10;;
20114;SDS011;10218;42.874;25.320;2023-05-10T06:14:28;13.47;;;6.83;;
20114;SDS011;10218;42.874;25.320;2023-05-10T06:16:55;11.20;;;7.60;;
20114;SDS011;10218;42.874;25.320;2023-05-10T06:19:22;10.13;;;6.53;;
20114;SDS011;10218;42.874;25.320;2023-05-10T06:21:49;10.17;;;5.87;;
20114;SDS011;10218;42.874;25.320;2023-05-10T06:24:17;8.13;;;6.13;;
20114;SDS011;10218;42.874;25.320;2023-05-10T06:26:45;9.83;;;6.40;;
20114;SDS011;10218;42.874;25.320;2023-05-10T06:29:12;12.30;;;6.17;;
20114;SDS011;10218;42.874;25.320;2023-05-10T06:31:39;12.83;;;5.87;;
20114;SDS011;10218;42.874;25.320;2023-05-10T06:34:06;8.33;;;6.17;;
20114;SDS011;10218;42.874;25.320;2023-05-10T06:36:34;8.27;;;6.00;;
20114;SDS011;10218;42.874;25.320;2023-05-10T06:39:01;10.97;;;7.17;;
20114;SDS011;10218;42.874;25.320;2023-05-10T06:41:29;8.60;;;6.33;;
20114;SDS011;10218;42.874;25.320;2023-05-10T06:43:56;13.13;;;6.47;;
20114;SDS011;10218;42.874;25.320;2023-05-10T06:46:23;10.30;;;6.10;;
20114;SDS011;10218;42.874;25.320;2023-05-10T06:48:51;8.87;;;5.87;;
20114;SDS011;10218;42.874;25.320;2023-05-10T06:51:17;9.57;;;6.43;;
20114;SDS011;10218;42.874;25.320;2023-05-10T06:53:44;9.80;;;5.73;;
20114;SDS011;10218;42.874;25.320;2023-05-10T06:56:12;10.27;;;6.33;;
20114;SDS011;10218;42.874;25.320;2023-05-10T06:58:39;9.40;;;6.13;;
20114;SDS011;10218;42.874;25.320;2023-05-10T07:01:06;13.17;;;6.53;;
20114;SDS011;10218;42.874;25.320;2023-05-10T07:03:33;16.97;;;8.40;;
20114;SDS011;10218;42.874;25.320;2023-05-10T07:06:03;14.60;;;7.70;;
20114;SDS011;10218;42.874;25.320;2023-05-10T07:08:31;13.30;;;6.10;;
20114;SDS011;10218;42.874;25.320;2023-05-10T07:11:02;10.27;;;7.03;;
20114;SDS011;10218;42.874;25.320;2023-05-10T07:13:30;22.33;;;8.70;;
20114;SDS011;10218;42.874;25.320;2023-05-10T07:15:59;14.33;;;8.10;;
20114;SDS011;10218;42.874;25.320;2023-05-10T07:18:27;16.20;;;7.50;;
20114;SDS011;10218;42.874;25.320;2023-05-10T07:20:54;12.83;;;7.63;;
20114;SDS011;10218;42.874;25.320;2023-05-10T07:23:21;10.87;;;6.80;;
20114;SDS011;10218;42.874;25.320;2023-05-10T07:25:49;13.03;;;7.47;;
20114;SDS011;10218;42.874;25.320;2023-05-10T07:28:18;26.57;;;12.27;;
20114;SDS011;10218;42.874;25.320;2023-05-10T07:30:46;14.47;;;8.27;;
20114;SDS011;10218;42.874;25.320;2023-05-10T07:33:13;8.40;;;6.30;;
20114;SDS011;10218;42.874;25.320;2023-05-10T07:35:42;15.30;;;5.97;;
20114;SDS011;10218;42.874;25.320;2023-05-10T07:38:10;11.43;;;7.07;;
20114;SDS011;10218;42.874;25.320;2023-05-10T07:40:40;8.43;;;6.17;;
20114;SDS011;10218;42.874;25.320;2023-05-10T07:43:07;7.67;;;5.33;;
20114;SDS011;10218;42.874;25.320;2023-05-10T07:45:34;6.77;;;5.00;;
20114;SDS011;10218;42.874;25.320;2023-05-10T07:48:01;9.97;;;5.33;;
20114;SDS011;10218;42.874;25.320;2023-05-10T07:50:28;9.33;;;5.37;;
20114;SDS011;10218;42.874;25.320;2023-05-10T07:52:56;9.23;;;5.20;;
20114;SDS011;10218;42.874;25.320;2023-05-10T07:55:23;8.53;;;5.47;;
20114;SDS011;10218;42.874;25.320;2023-05-10T07:57:50;11.83;;;5.30;;
20114;SDS011;10218;42.874;25.320;2023-05-10T08:00:18;8.60;;;5.63;;
20114;SDS011;10218;42.874;25.320;2023-05-10T08:02:47;5.93;;;5.13;;
20114;SDS011;10218;42.874;25.320;2023-05-10T08:05:14;7.43;;;4.97;;
20114;SDS011;10218;42.874;25.320;2023-05-10T08:07:41;7.20;;;5.10;;
20114;SDS011;10218;42.874;25.320;2023-05-10T08:10:09;9.60;;;4.83;;
20114;SDS011;10218;42.874;25.320;2023-05-10T08:12:37;8.57;;;4.37;;
20114;SDS011;10218;42.874;25.320;2023-05-10T08:15:05;7.57;;;5.17;;
20114;SDS011;10218;42.874;25.320;2023-05-10T08:17:33;6.13;;;4.70;;
20114;SDS011;10218;42.874;25.320;2023-05-10T08:20:01;6.07;;;4.87;;
20114;SDS011;10218;42.874;25.320;2023-05-10T08:22:28;8.40;;;4.30;;
20114;SDS011;10218;42.874;25.320;2023-05-10T08:24:55;6.00;;;4.70;;
20114;SDS011;10218;42.874;25.320;2023-05-10T08:27:22;10.40;;;4.47;;
20114;SDS011;10218;42.874;25.320;2023-05-10T08:29:49;8.07;;;4.83;;
20114;SDS011;10218;42.874;25.320;2023-05-10T08:32:17;13.00;;;4.47;;
20114;SDS011;10218;42.874;25.320;2023-05-10T08:34:44;11.17;;;4.70;;
20114;SDS011;10218;42.874;25.320;2023-05-10T08:37:11;8.93;;;4.60;;
20114;SDS011;10218;42.874;25.320;2023-05-10T08:39:40;9.60;;;4.90;;
20114;SDS011;10218;42.874;25.320;2023-05-10T08:42:07;5.80;;;4.37;;
20114;SDS011;10218;42.874;25.320;2023-05-10T08:44:35;9.07;;;5.00;;
20114;SDS011;10218;42.874;25.320;2023-05-10T08:47:06;10.70;;;5.83;;
20114;SDS011;10218;42.874;25.320;2023-05-10T08:49:35;6.57;;;4.80;;
20114;SDS011;10218;42.874;25.320;2023-05-10T08:52:04;10.37;;;4.67;;
20114;SDS011;10218;42.874;25.320;2023-05-10T08:54:33;10.23;;;4.97;;
20114;SDS011;10218;42.874;25.320;2023-05-10T08:57:01;8.27;;;5.00;;
20114;SDS011;10218;42.874;25.320;2023-05-10T08:59:28;6.63;;;5.13;;
20114;SDS011;10218;42.874;25.320;2023-05-10T09:01:57;10.93;;;5.07;;
20114;SDS011;10218;42.874;25.320;2023-05-10T09:04:25;8.17;;;4.57;;
20114;SDS011;10218;42.874;25.320;2023-05-10T09:06:53;8.53;;;4.23;;
20114;SDS011;10218;42.874;25.320;2023-05-10T09:09:21;5.57;;;4.47;;
20114;SDS011;10218;42.874;25.320;2023-05-10T09:11:48;6.67;;;4.60;;
20114;SDS011;10218;42.874;25.320;2023-05-10T09:14:15;8.47;;;4.73;;
20114;SDS011;10218;42.874;25.320;2023-05-10T09:16:44;4.70;;;3.90;;
20114;SDS011;10218;42.874;25.320;2023-05-10T09:19:11;7.57;;;3.80;;
20114;SDS011;10218;42.874;25.320;2023-05-10T09:21:38;7.43;;;4.50;;
20114;SDS011;10218;42.874;25.320;2023-05-10T09:24:06;5.57;;;4.30;;
20114;SDS011;10218;42.874;25.320;2023-05-10T09:26:35;8.53;;;4.10;;
20114;SDS011;10218;42.874;25.320;2023-05-10T09:29:12;5.97;;;3.60;;
20114;SDS011;10218;42.874;25.320;2023-05-10T09:34:28;9.00;;;4.37;;
20114;SDS011;10218;42.874;25.320;2023-05-10T09:37:01;15.00;;;4.00;;
20114;SDS011;10218;42.874;25.320;2023-05-10T09:39:35;5.83;;;3.93;;
20114;SDS011;10218;42.874;25.320;2023-05-10T09:42:04;5.20;;;3.57;;
20114;SDS011;10218;42.874;25.320;2023-05-10T09:44:36;7.43;;;3.80;;
20114;SDS011;10218;42.874;25.320;2023-05-10T09:47:05;6.47;;;4.07;;
20114;SDS011;10218;42.874;25.320;2023-05-10T09:49:32;5.47;;;3.67;;
20114;SDS011;10218;42.874;25.320;2023-05-10T09:52:07;5.77;;;4.00;;
20114;SDS011;10218;42.874;25.320;2023-05-10T09:54:34;5.17;;;3.83;;
20114;SDS011;10218;42.874;25.320;2023-05-10T09:57:02;10.67;;;5.77;;
20114;SDS011;10218;42.874;25.320;2023-05-10T09:59:29;14.70;;;5.43;;
20114;SDS011;10218;42.874;25.320;2023-05-10T10:01:59;7.63;;;3.40;;
20114;SDS011;10218;42.874;25.320;2023-05-10T10:04:27;6.63;;;4.23;;
20114;SDS011;10218;42.874;25.320;2023-05-10T10:06:59;5.53;;;3.87;;
20114;SDS011;10218;42.874;25.320;2023-05-10T10:09:27;11.17;;;5.30;;
20114;SDS011;10218;42.874;25.320;2023-05-10T10:11:55;11.23;;;5.33;;
20114;SDS011;10218;42.874;25.320;2023-05-10T10:14:23;10.87;;;5.43;;
20114;SDS011;10218;42.874;25.320;2023-05-10T10:16:51;8.97;;;4.03;;
20114;SDS011;10218;42.874;25.320;2023-05-10T10:19:31;8.67;;;4.10;;
20114;SDS011;10218;42.874;25.320;2023-05-10T10:22:00;5.73;;;3.67;;
20114;SDS011;10218;42.874;25.320;2023-05-10T10:24:27;6.73;;;3.57;;
20114;SDS011;10218;42.874;25.320;2023-05-10T10:26:55;4.63;;;3.07;;
20114;SDS011;10218;42.874;25.320;2023-05-10T10:29:38;7.07;;;3.37;;
20114;SDS011;10218;42.874;25.320;2023-05-10T10:35:42;4.63;;;3.47;;
20114;SDS011;10218;42.874;25.320;2023-05-10T10:38:12;3.50;;;3.20;;
20114;SDS011;10218;42.874;25.320;2023-05-10T10:40:39;4.60;;;3.50;;
20114;SDS011;10218;42.874;25.320;2023-05-10T10:48:50;3.93;;;3.17;;
20114;SDS011;10218;42.874;25.320;2023-05-10T10:51:38;4.73;;;3.27;;
20114;SDS011;10218;42.874;25.320;2023-05-10T10:54:09;4.90;;;3.27;;
20114;SDS011;10218;42.874;25.320;2023-05-10T10:56:37;6.60;;;3.10;;
20114;SDS011;10218;42.874;25.320;2023-05-10T10:59:04;5.83;;;3.17;;
20114;SDS011;10218;42.874;25.320;2023-05-10T11:01:34;7.43;;;3.40;;
20114;SDS011;10218;42.874;25.320;2023-05-10T11:06:29;8.60;;;4.10;;
20114;SDS011;10218;42.874;25.320;2023-05-10T11:09:10;5.80;;;2.57;;
20114;SDS011;10218;42.874;25.320;2023-05-10T11:11:50;4.63;;;2.67;;
20114;SDS011;10218;42.874;25.320;2023-05-10T11:14:19;4.47;;;3.10;;
20114;SDS011;10218;42.874;25.320;2023-05-10T11:16:48;9.97;;;4.43;;
20114;SDS011;10218;42.874;25.320;2023-05-10T11:19:16;4.57;;;2.83;;
20114;SDS011;10218;42.874;25.320;2023-05-10T11:21:46;8.70;;;4.90;;
20114;SDS011;10218;42.874;25.320;2023-05-10T11:24:21;4.53;;;3.27;;
20114;SDS011;10218;42.874;25.320;2023-05-10T11:26:50;3.83;;;3.10;;
20114;SDS011;10218;42.874;25.320;2023-05-10T11:29:19;11.97;;;3.20;;
20114;SDS011;10218;42.874;25.320;2023-05-10T11:31:47;7.27;;;2.63;;
20114;SDS011;10218;42.874;25.320;2023-05-10T11:34:28;4.77;;;3.00;;
20114;SDS011;10218;42.874;25.320;2023-05-10T11:36:59;5.27;;;3.20;;
20114;SDS011;10218;42.874;25.320;2023-05-10T11:39:28;3.03;;;2.40;;
20114;SDS011;10218;42.874;25.320;2023-05-10T11:41:56;8.07;;;2.77;;
20114;SDS011;10218;42.874;25.320;2023-05-10T11:44:29;8.33;;;3.10;;
20114;SDS011;10218;42.874;25.320;2023-05-10T11:47:00;7.87;;;3.37;;
20114;SDS011;10218;42.874;25.320;2023-05-10T11:49:28;4.47;;;2.90;;
20114;SDS011;10218;42.874;25.320;2023-05-10T11:52:05;5.43;;;2.90;;
20114;SDS011;10218;42.874;25.320;2023-05-10T11:54:34;8.93;;;2.70;;
20114;SDS011;10218;42.874;25.320;2023-05-10T11:57:04;4.73;;;3.00;;
20114;SDS011;10218;42.874;25.320;2023-05-10T11:59:30;9.53;;;3.57;;
20114;SDS011;10218;42.874;25.320;2023-05-10T12:01:58;4.90;;;2.97;;
20114;SDS011;10218;42.874;25.320;2023-05-10T12:04:25;4.23;;;3.00;;
20114;SDS011;10218;42.874;25.320;2023-05-10T12:06:55;5.67;;;3.37;;
20114;SDS011;10218;42.874;25.320;2023-05-10T12:09:22;6.47;;;3.40;;
20114;SDS011;10218;42.874;25.320;2023-05-10T12:11:55;4.10;;;3.13;;
20114;SDS011;10218;42.874;25.320;2023-05-10T12:14:25;4.67;;;3.23;;
20114;SDS011;10218;42.874;25.320;2023-05-10T12:16:52;7.20;;;3.10;;
20114;SDS011;10218;42.874;25.320;2023-05-10T12:19:20;3.50;;;3.17;;
20114;SDS011;10218;42.874;25.320;2023-05-10T12:21:47;5.37;;;3.00;;
20114;SDS011;10218;42.874;25.320;2023-05-10T12:24:15;4.57;;;2.97;;
20114;SDS011;10218;42.874;25.320;2023-05-10T12:26:46;5.10;;;2.80;;
20114;SDS011;10218;42.874;25.320;2023-05-10T12:29:13;5.93;;;2.97;;
20114;SDS011;10218;42.874;25.320;2023-05-10T12:31:54;5.50;;;2.77;;
20114;SDS011;10218;42.874;25.320;2023-05-10T12:34:26;4.23;;;3.70;;
20114;SDS011;10218;42.874;25.320;2023-05-10T12:37:02;4.77;;;2.83;;
20114;SDS011;10218;42.874;25.320;2023-05-10T12:39:43;19.00;;;14.00;;
20114;SDS011;10218;42.874;25.320;2023-05-10T12:42:11;10.07;;;6.60;;
20114;SDS011;10218;42.874;25.320;2023-05-10T12:44:38;4.13;;;2.93;;
20114;SDS011;10218;42.874;25.320;2023-05-10T12:47:06;3.23;;;2.40;;
20114;SDS011;10218;42.874;25.320;2023-05-10T12:49:33;12.00;;;8.63;;
20114;SDS011;10218;42.874;25.320;2023-05-10T12:52:00;4.67;;;2.80;;
20114;SDS011;10218;42.874;25.320;2023-05-10T12:54:28;10.50;;;7.90;;
20114;SDS011;10218;42.874;25.320;2023-05-10T12:56:55;11.00;;;7.87;;
20114;SDS011;10218;42.874;25.320;2023-05-10T12:59:22;11.13;;;7.00;;
20114;SDS011;10218;42.874;25.320;2023-05-10T13:01:49;3.87;;;3.13;;
20114;SDS011;10218;42.874;25.320;2023-05-10T13:04:16;15.00;;;10.47;;
20114;SDS011;10218;42.874;25.320;2023-05-10T13:06:43;5.90;;;3.07;;
20114;SDS011;10218;42.874;25.320;2023-05-10T13:09:11;6.07;;;2.80;;
20114;SDS011;10218;42.874;25.320;2023-05-10T13:11:38;5.20;;;4.00;;
20114;SDS011;10218;42.874;25.320;2023-05-10T13:14:05;4.07;;;2.90;;
20114;SDS011;10218;42.874;25.320;2023-05-10T13:16:32;4.83;;;2.70;;
20114;SDS011;10218;42.874;25.320;2023-05-10T13:18:59;5.20;;;3.13;;
20114;SDS011;10218;42.874;25.320;2023-05-10T13:21:26;3.30;;;2.70;;
20114;SDS011;10218;42.874;25.320;2023-05-10T13:23:54;6.30;;;3.50;;
20114;SDS011;10218;42.874;25.320;2023-05-10T13:26:21;3.20;;;2.83;;
20114;SDS011;10218;42.874;25.320;2023-05-10T13:28:48;3.10;;;2.77;;
20114;SDS011;10218;42.874;25.320;2023-05-10T13:31:16;5.70;;;2.87;;
20114;SDS011;10218;42.874;25.320;2023-05-10T13:33:43;4.93;;;2.73;;
20114;SDS011;10218;42.874;25.320;2023-05-10T13:36:10;4.90;;;2.90;;
20114;SDS011;10218;42.874;25.320;2023-05-10T13:38:37;3.53;;;2.67;;
20114;SDS011;10218;42.874;25.320;2023-05-10T13:41:04;5.17;;;2.50;;
20114;SDS011;10218;42.874;25.320;2023-05-10T13:43:32;4.27;;;2.83;;
20114;SDS011;10218;42.874;25.320;2023-05-10T13:45:59;3.20;;;2.50;;
20114;SDS011;10218;42.874;25.320;2023-05-10T13:48:26;3.77;;;2.40;;
20114;SDS011;10218;42.874;25.320;2023-05-10T13:50:53;4.53;;;2.33;;
20114;SDS011;10218;42.874;25.320;2023-05-10T13:53:21;4.27;;;2.70;;
20114;SDS011;10218;42.874;25.320;2023-05-10T13:59:05;4.87;;;2.80;;
20114;SDS011;10218;42.874;25.320;2023-05-10T14:01:33;3.27;;;2.70;;
20114;SDS011;10218;42.874;25.320;2023-05-10T14:04:00;3.87;;;2.80;;
20114;SDS011;10218;42.874;25.320;2023-05-10T14:06:27;4.40;;;2.77;;
20114;SDS011;10218;42.874;25.320;2023-05-10T14:08:54;4.40;;;3.33;;
20114;SDS011;10218;42.874;25.320;2023-05-10T14:11:22;5.63;;;3.33;;
20114;SDS011;10218;42.874;25.320;2023-05-10T14:13:50;5.40;;;2.90;;
20114;SDS011;10218;42.874;25.320;2023-05-10T14:16:17;5.23;;;2.60;;
20114;SDS011;10218;42.874;25.320;2023-05-10T14:18:44;3.17;;;2.67;;
20114;SDS011;10218;42.874;25.320;2023-05-10T14:21:11;3.80;;;3.00;;
20114;SDS011;10218;42.874;25.320;2023-05-10T14:23:38;3.83;;;2.50;;
20114;SDS011;10218;42.874;25.320;2023-05-10T14:26:06;4.93;;;3.07;;
20114;SDS011;10218;42.874;25.320;2023-05-10T14:28:33;4.07;;;2.80;;
20114;SDS011;10218;42.874;25.320;2023-05-10T14:31:00;4.03;;;2.70;;
20114;SDS011;10218;42.874;25.320;2023-05-10T14:33:27;5.23;;;2.63;;
20114;SDS011;10218;42.874;25.320;2023-05-10T14:35:54;4.50;;;3.00;;
20114;SDS011;10218;42.874;25.320;2023-05-10T14:38:23;3.17;;;2.80;;
20114;SDS011;10218;42.874;25.320;2023-05-10T14:40:50;5.20;;;2.87;;
20114;SDS011;10218;42.874;25.320;2023-05-10T14:43:17;3.53;;;3.00;;
20114;SDS011;10218;42.874;25.320;2023-05-10T14:45:44;6.83;;;2.90;;
20114;SDS011;10218;42.874;25.320;2023-05-10T14:48:12;5.23;;;3.50;;
20114;SDS011;10218;42.874;25.320;2023-05-10T14:50:41;6.60;;;3.13;;
20114;SDS011;10218;42.874;25.320;2023-05-10T14:56:04;4.27;;;3.17;;
20114;SDS011;10218;42.874;25.320;2023-05-10T14:58:31;6.00;;;3.63;;
20114;SDS011;10218;42.874;25.320;2023-05-10T15:00:59;5.07;;;3.03;;
20114;SDS011;10218;42.874;25.320;2023-05-10T15:03:26;6.43;;;3.20;;
20114;SDS011;10218;42.874;25.320;2023-05-10T15:05:54;6.87;;;3.70;;
20114;SDS011;10218;42.874;25.320;2023-05-10T15:08:22;3.80;;;3.10;;
20114;SDS011;10218;42.874;25.320;2023-05-10T15:10:51;3.93;;;3.03;;